Time;durP1;ratioP1;P1;durP2;ratioP2;P2;SDS_P1;SDS_P2;PMS_P1;PMS_P2;Temp;Humidity;BMP_temperature;BMP_pressure;BME280_temperature;BME280_humidity;BME280_pressure;Samples;Min_cycle;Max_cycle;Signal;HPM_P1;HPM_P2
2022/03/25 00:00:54;;;;;;;;;;;4.60;74.10;;;3.38;69.76;96581.88;4011845;34;20234;-84
2022/03/25 00:03:23;;;;;;;;;;;4.60;73.90;;;3.37;69.93;96581.03;4033053;34;20245;-84
2022/03/25 00:05:52;;;;;;;;;;;4.60;73.80;;;3.36;69.81;96582.09;4024035;34;20107;-84
2022/03/25 00:08:20;;;;;;;;;;;4.60;73.80;;;3.37;69.56;96583.75;4032062;34;19904;-84
2022/03/25 00:10:51;;;;;;;;;;;4.60;73.80;;;3.37;69.69;96578.34;4033581;34;20206;-84
2022/03/25 00:13:19;;;;;;;;;;;4.60;73.50;;;3.36;69.88;96579.38;4028395;34;20210;-84
2022/03/25 00:15:48;;;;;;;;;;;4.60;73.50;;;3.36;69.32;96586.66;4029107;34;20264;-84
2022/03/25 00:18:17;;;;;;;;;;;4.60;73.50;;;3.35;69.41;96583.13;4028409;34;20223;-84
2022/03/25 00:20:45;;;;;;;;;;;4.60;73.50;;;3.35;69.51;96583.13;4051620;34;20217;-84
2022/03/25 00:23:14;;;;;;;;;;;4.60;73.50;;;3.35;69.37;96593.13;4029000;34;20208;-84
2022/03/25 00:25:43;;;;;;;;;;;4.60;73.40;;;3.34;69.18;96583.34;4039384;34;19911;-84
2022/03/25 00:28:13;;;;;;;;;;;4.60;73.30;;;3.33;69.54;96593.34;4022589;34;20211;-84
2022/03/25 00:30:43;;;;;;;;;;;4.60;73.30;;;3.34;69.17;96592.28;4023476;34;20206;-84
2022/03/25 00:33:11;;;;;;;;;;;4.60;73.40;;;3.34;69.52;96595.00;4023487;34;20211;-84
2022/03/25 00:35:41;;;;;;;;;;;4.60;73.20;;;3.33;69.25;96593.34;4002863;34;19915;-84
2022/03/25 00:38:10;;;;;;;;;;;4.50;73.20;;;3.33;69.35;96598.75;4003902;34;20227;-84
2022/03/25 00:40:38;;;;;;;;;;;4.60;73.20;;;3.32;69.36;96594.38;4004712;34;20440;-84
2022/03/25 00:43:07;;;;;;;;;;;4.50;73.20;;;3.33;69.16;96600.63;4026459;34;20207;-84
2022/03/25 00:45:37;;;;;;;;;;;4.60;73.30;;;3.32;69.64;96599.78;4004474;34;20548;-83
2022/03/25 00:48:07;;;;;;;;;;;4.60;73.20;;;3.33;68.84;96600.63;4004328;34;20212;-84
2022/03/25 00:50:36;;;;;;;;;;;4.60;73.20;;;3.32;69.17;96607.09;4005036;34;20230;-83
2022/03/25 00:53:05;;;;;;;;;;;4.50;73.10;;;3.30;69.02;96599.16;4008145;34;19911;-84
2022/03/25 00:55:34;;;;;;;;;;;4.50;72.90;;;3.31;69.16;96600.84;4032713;34;19911;-84
2022/03/25 00:58:02;;;;;;;;;;;4.50;72.80;;;3.31;68.61;96603.53;3997272;34;20183;-83
2022/03/25 01:00:31;;;;;;;;;;;4.60;72.70;;;3.30;68.81;96601.88;3985221;34;20247;-83
2022/03/25 01:03:01;;;;;;;;;;;4.50;72.80;;;3.30;68.67;96595.66;4007362;34;20168;-84
2022/03/25 01:05:30;;;;;;;;;;;4.50;72.70;;;3.30;68.95;96601.88;4008875;34;20261;-84
2022/03/25 01:07:59;;;;;;;;;;;4.60;72.80;;;3.29;68.69;96599.41;3987513;34;20104;-84
2022/03/25 01:10:28;;;;;;;;;;;4.60;72.70;;;3.27;68.50;96602.34;4009217;34;20257;-83
2022/03/25 01:12:57;;;;;;;;;;;4.50;72.70;;;3.27;68.77;96606.91;4009626;34;20204;-83
2022/03/25 01:15:26;;;;;;;;;;;4.50;72.70;;;3.28;68.86;96609.41;3987570;34;19905;-83
2022/03/25 01:17:55;;;;;;;;;;;4.50;72.60;;;3.28;68.87;96606.69;4055768;34;19904;-84
2022/03/25 01:20:25;;;;;;;;;;;4.50;72.50;;;3.27;68.62;96612.31;4035071;34;19904;-83
2022/03/25 01:22:54;;;;;;;;;;;4.50;72.60;;;3.28;68.50;96605.84;4013344;34;20126;-83
2022/03/25 01:25:23;;;;;;;;;;;4.50;72.40;;;3.26;68.98;96614.19;4011865;34;19905;-84
2022/03/25 01:27:51;;;;;;;;;;;4.50;72.50;;;3.27;68.24;96612.31;4034330;34;20195;-83
2022/03/25 01:30:20;;;;;;;;;;;4.50;72.50;;;3.26;68.70;96611.50;4012894;34;20229;-83
2022/03/25 01:32:50;;;;;;;;;;;4.50;72.30;;;3.25;68.54;96612.53;4034394;34;19907;-84
2022/03/25 01:35:22;;;;;;;;;;;4.50;72.40;;;3.25;68.90;96614.38;4061417;34;20225;-83
2022/03/25 01:37:52;;;;;;;;;;;4.50;72.40;;;3.23;68.36;96612.72;4060651;34;19911;-83
2022/03/25 01:40:21;;;;;;;;;;;4.50;72.40;;;3.25;68.20;96623.34;4038449;34;19912;-84
2022/03/25 01:42:50;;;;;;;;;;;4.50;72.30;;;3.26;68.51;96625.00;4038614;34;20450;-84
2022/03/25 01:45:32;;;;;;;;;;;4.50;72.40;;;3.24;68.43;96613.56;4035493;34;20240;-83
2022/03/25 01:48:01;;;;;;;;;;;4.50;72.60;;;3.25;68.70;96620.66;4059861;34;19904;-84
2022/03/25 01:50:29;;;;;;;;;;;4.50;72.40;;;3.21;68.21;96617.53;4035971;34;19904;-84
2022/03/25 01:53:00;;;;;;;;;;;4.50;72.20;;;3.22;68.30;96621.06;4018505;34;20214;-83
2022/03/25 01:55:28;;;;;;;;;;;4.50;72.30;;;3.22;67.93;96631.88;4011752;34;20452;-83
2022/03/25 01:57:58;;;;;;;;;;;4.50;72.00;;;3.21;68.17;96624.81;3998985;34;20251;-83
2022/03/25 02:00:29;;;;;;;;;;;4.50;72.20;;;3.21;68.70;96617.53;4006921;34;20220;-83
2022/03/25 02:02:57;;;;;;;;;;;4.40;72.10;;;3.19;68.41;96621.47;4026534;34;20201;-83
2022/03/25 02:05:26;;;;;;;;;;;4.50;72.40;;;3.20;68.66;96626.69;4011024;34;19905;-83
2022/03/25 02:07:55;;;;;;;;;;;4.40;72.30;;;3.21;68.91;96617.53;4011356;34;20215;-83
2022/03/25 02:10:26;;;;;;;;;;;4.50;72.50;;;3.21;68.30;96624.81;4010824;34;20239;-83
2022/03/25 02:12:54;;;;;;;;;;;4.40;72.30;;;3.19;68.40;96624.19;4032308;34;20195;-83
2022/03/25 02:15:39;;;;;;;;;;;4.50;72.30;;;3.19;68.25;96621.47;4012148;34;20213;-83
2022/03/25 02:18:15;;;;;;;;;;;4.50;72.20;;;3.18;67.86;96630.66;4009371;34;20684;-83
2022/03/25 02:20:44;;;;;;;;;;;4.50;72.00;;;3.17;68.29;96634.38;4010067;34;20431;-83
2022/03/25 02:23:16;;;;;;;;;;;4.40;71.90;;;3.18;67.78;96636.06;4032531;34;20215;-83
2022/03/25 02:25:45;;;;;;;;;;;4.40;71.80;;;3.18;67.99;96630.66;4010499;34;19984;-83
2022/03/25 02:28:15;;;;;;;;;;;4.40;71.80;;;3.17;67.85;96635.25;4010115;34;19904;-83
2022/03/25 02:30:47;;;;;;;;;;;4.40;71.60;;;3.18;68.10;96644.16;4010711;34;20213;-83
2022/03/25 02:33:16;;;;;;;;;;;4.40;71.50;;;3.16;67.43;96644.41;4010352;34;20252;-83
2022/03/25 02:35:46;;;;;;;;;;;4.40;71.40;;;3.15;67.57;96637.31;4011854;34;19915;-82
2022/03/25 02:38:18;;;;;;;;;;;4.40;71.20;;;3.16;67.42;96647.09;4012227;34;20206;-82
2022/03/25 02:40:47;;;;;;;;;;;4.40;71.40;;;3.14;67.68;96651.06;4034281;34;19904;-82
2022/03/25 02:43:16;;;;;;;;;;;4.40;71.30;;;3.15;67.86;96648.13;4013056;34;20219;-82
2022/03/25 02:45:49;;;;;;;;;;;4.40;71.30;;;3.15;67.87;96647.31;4013152;34;20216;-82
2022/03/25 02:48:18;;;;;;;;;;;4.40;71.20;;;3.15;67.42;96647.31;4045930;34;20213;-82
2022/03/25 02:50:47;;;;;;;;;;;4.40;71.30;;;3.14;67.39;96645.66;4062699;34;19911;-82
2022/03/25 02:53:17;;;;;;;;;;;4.40;71.20;;;3.12;67.38;96653.97;4039103;34;19923;-82
2022/03/25 02:55:45;;;;;;;;;;;4.40;71.20;;;3.12;67.47;96653.97;4038265;34;20111;-82
2022/03/25 02:58:14;;;;;;;;;;;4.30;71.30;;;3.13;67.51;96649.41;4037528;34;20539;-81
2022/03/25 03:00:43;;;;;;;;;;;4.40;71.40;;;3.11;67.06;96651.50;4059150;34;19904;-82
2022/03/25 03:03:11;;;;;;;;;;;4.40;71.50;;;3.11;67.87;96652.31;4036564;34;20090;-82
2022/03/25 03:05:40;;;;;;;;;;;4.40;71.40;;;3.11;67.31;96654.19;4033421;34;20209;-82
2022/03/25 03:08:09;;;;;;;;;;;4.30;71.10;;;3.11;67.11;96652.31;4044101;34;19905;-82
2022/03/25 03:10:39;;;;;;;;;;;4.30;71.00;;;3.10;67.24;96655.22;4025822;34;19905;-82
2022/03/25 03:13:09;;;;;;;;;;;4.30;71.10;;;3.12;67.32;96663.97;4004279;34;19904;-82
2022/03/25 03:15:37;;;;;;;;;;;4.30;70.90;;;3.10;67.67;96655.22;4026713;34;20202;-82
2022/03/25 03:18:06;;;;;;;;;;;4.40;71.10;;;3.09;67.45;96667.09;4003505;34;20508;-82
2022/03/25 03:20:34;;;;;;;;;;;4.40;71.20;;;3.10;66.94;96666.06;4002454;34;20211;-82
2022/03/25 03:23:03;;;;;;;;;;;4.30;71.20;;;3.09;67.54;96669.78;4002205;34;20347;-81
2022/03/25 03:25:32;;;;;;;;;;;4.40;71.10;;;3.07;67.15;96670.84;4023531;34;20234;-82
2022/03/25 03:28:02;;;;;;;;;;;4.40;71.00;;;3.07;67.18;96678.13;4003413;34;19905;-82
2022/03/25 03:30:31;;;;;;;;;;;4.40;71.20;;;3.06;67.07;96677.28;4028814;34;19905;-82
2022/03/25 03:33:04;;;;;;;;;;;4.30;71.10;;;3.06;67.46;96682.69;4027524;34;20192;-82
2022/03/25 03:35:34;;;;;;;;;;;4.30;71.10;;;3.07;67.67;96680.84;4004580;34;19909;-82
2022/03/25 03:38:03;;;;;;;;;;;4.30;71.30;;;3.07;67.00;96680.84;4029248;34;20212;-82
2022/03/25 03:40:31;;;;;;;;;;;4.30;72.10;;;3.05;67.47;96683.75;4034337;34;20198;-82
2022/03/25 03:43:03;;;;;;;;;;;4.30;71.10;;;3.06;67.18;96682.69;4032845;34;19904;-82
2022/03/25 03:45:33;;;;;;;;;;;4.30;71.10;;;3.06;67.24;96681.88;4024316;34;20202;-82
2022/03/25 03:48:01;;;;;;;;;;;4.30;71.10;;;3.04;67.24;96670.44;4023701;34;20557;-82
2022/03/25 03:50:30;;;;;;;;;;;4.30;71.10;;;3.05;67.44;96677.50;4002838;34;20200;-82
2022/03/25 03:52:59;;;;;;;;;;;4.30;71.10;;;3.04;67.61;96687.47;4028061;34;19928;-82
2022/03/25 03:55:27;;;;;;;;;;;4.30;71.20;;;3.05;67.37;96691.84;4031845;28;20204;-84
2022/03/25 03:57:56;;;;;;;;;;;4.30;71.20;;;3.04;67.05;96694.78;4030244;34;20227;-84
2022/03/25 04:00:26;;;;;;;;;;;4.30;71.10;;;3.04;67.73;96694.78;4026688;34;19905;-85
2022/03/25 04:02:55;;;;;;;;;;;4.30;71.30;;;3.04;67.95;96689.38;4003071;34;19904;-85
2022/03/25 04:05:24;;;;;;;;;;;4.30;71.70;;;3.05;68.46;96685.63;4030661;34;20558;-85
2022/03/25 04:07:53;;;;;;;;;;;4.30;72.10;;;3.04;68.37;96683.97;4056669;34;19904;-85
2022/03/25 04:10:22;;;;;;;;;;;4.30;72.20;;;3.04;68.20;96690.19;4058466;34;19904;-84
2022/03/25 04:12:50;;;;;;;;;;;4.30;72.30;;;3.04;68.20;96690.19;4037064;34;20203;-83
2022/03/25 04:15:19;;;;;;;;;;;4.30;72.30;;;3.03;67.79;96687.69;4059064;34;20571;-84
2022/03/25 04:17:49;;;;;;;;;;;4.30;72.00;;;3.05;67.99;96691.03;4036320;34;20225;-84
2022/03/25 04:20:18;;;;;;;;;;;4.30;72.10;;;3.04;67.73;96689.38;4059349;34;20339;-85
2022/03/25 04:22:47;;;;;;;;;;;4.30;71.80;;;3.03;67.89;96688.53;4037562;34;20107;-84
2022/03/25 04:25:16;;;;;;;;;;;4.30;71.70;;;3.02;68.20;96695.00;4059550;34;20249;-84
2022/03/25 04:27:53;;;;;;;;;;;4.30;72.00;;;3.03;68.07;96691.22;4036488;34;19915;-85
2022/03/25 04:30:24;;;;;;;;;;;4.30;72.00;;;3.05;68.34;96691.03;4060675;34;20063;-85
2022/03/25 04:32:54;;;;;;;;;;;4.30;72.00;;;3.06;68.39;96688.09;4037247;34;19911;-85
2022/03/25 04:35:23;;;;;;;;;;;4.30;72.10;;;3.07;68.27;96680.84;4059646;34;19904;-85
2022/03/25 04:37:52;;;;;;;;;;;4.30;72.20;;;3.09;68.51;96675.22;4058615;34;20212;-84
2022/03/25 04:40:22;;;;;;;;;;;4.40;72.10;;;3.10;68.33;96682.28;4038289;34;20246;-85
2022/03/25 04:42:52;;;;;;;;;;;4.30;72.00;;;3.14;68.20;96687.06;4038902;34;19916;-85
2022/03/25 04:45:21;;;;;;;;;;;4.40;71.90;;;3.22;67.98;96697.66;4061461;34;20062;-84
2022/03/25 04:47:50;;;;;;;;;;;4.50;71.80;;;3.38;67.18;96707.19;4038527;34;19904;-83
2022/03/25 04:50:20;;;;;;;;;;;4.70;71.10;;;3.56;66.84;96704.84;4021638;34;20445;-84
2022/03/25 04:52:49;;;;;;;;;;;4.80;70.60;;;3.69;65.80;96702.09;3986450;34;19912;-84
2022/03/25 04:55:21;;;;;;;;;;;5.00;69.70;;;3.80;65.32;96709.53;4011340;34;19911;-84
2022/03/25 04:57:49;;;;;;;;;;;5.10;69.50;;;3.90;66.82;96709.09;4038488;34;20203;-85
2022/03/25 05:00:18;;;;;;;;;;;5.10;70.50;;;4.03;66.98;96712.78;4039034;34;19908;-86
2022/03/25 05:02:47;;;;;;;;;;;5.20;70.80;;;4.09;67.00;96711.91;4038717;34;19905;-85
2022/03/25 05:05:15;;;;;;;;;;;5.20;70.50;;;4.15;66.36;96711.06;4023829;34;20223;-84
2022/03/25 05:07:46;;;;;;;;;;;5.30;70.70;;;4.22;66.76;96722.69;4007693;34;20577;-84
2022/03/25 05:10:15;;;;;;;;;;;5.40;70.80;;;4.31;66.43;96723.25;4026612;34;20215;-84
2022/03/25 05:12:45;;;;;;;;;;;5.50;70.60;;;4.42;66.28;96727.16;4038408;34;20230;-84
2022/03/25 05:15:13;;;;;;;;;;;5.60;70.30;;;4.53;65.97;96726.47;4058879;34;20221;-84
2022/03/25 05:17:46;;;;;;;;;;;5.70;70.10;;;4.60;65.67;96729.13;4059405;34;19904;-84
2022/03/25 05:20:16;;;;;;;;;;;5.70;70.00;;;4.68;65.75;96725.31;4037068;34;19919;-85
2022/03/25 05:22:46;;;;;;;;;;;5.80;69.80;;;4.69;65.64;96721.56;4057205;34;20209;-85
2022/03/25 05:25:23;;;;;;;;;;;5.90;69.60;;;4.76;65.75;96723.16;4036213;34;20199;-85
2022/03/25 05:27:59;;;;;;;;;;;6.00;69.40;;;4.81;65.74;96719.78;4036202;34;19904;-85
2022/03/25 05:31:10;;;;;;;;;;;6.10;69.20;;;4.87;65.30;96718.88;4028869;34;19905;-88
2022/03/25 05:33:58;;;;;;;;;;;6.20;68.60;;;5.04;65.23;96732.72;3941661;34;20249;-84
2022/03/25 05:41:18;;;;;;;;;;;6.90;67.30;;;5.69;63.36;96736.06;3909829;35;20237;-87
2022/03/25 05:44:26;;;;;;;;;;;7.50;65.00;;;6.05;62.70;96739.03;3949597;34;20245;-85
2022/03/25 05:47:39;;;;;;;;;;;;;;;;;;;;;
2022/03/25 05:55:19;;;;;;;;;;;9.10;59.10;;;7.36;58.36;96746.47;3907313;35;19913;-84
2022/03/25 05:58:01;;;;;;;;;;;9.60;57.30;;;7.52;57.86;96733.22;3910940;35;20242;-86
2022/03/25 06:00:29;;;;;;;;;;;9.90;56.30;;;7.68;56.82;96740.66;3905903;34;20228;-86
2022/03/25 06:03:07;;;;;;;;;;;10.10;55.50;;;7.78;56.61;96736.50;4003520;34;19911;-85
2022/03/25 06:09:57;;;;;;;;;;;10.30;54.30;;;7.77;56.07;96737.59;3933202;34;20210;-87
2022/03/25 06:12:27;;;;;;;;;;;10.20;54.20;;;7.61;55.90;96733.69;3976156;34;20208;-84
2022/03/25 06:15:00;;;;;;;;;;;9.90;55.40;;;7.34;56.94;96737.72;3976773;34;20243;-85
2022/03/25 06:17:31;;;;;;;;;;;9.60;55.20;;;7.04;57.81;96735.91;4022791;34;20202;-85
2022/03/25 06:20:08;;;;;;;;;;;9.20;56.20;;;6.70;58.56;96738.34;4051949;34;20067;-85
2022/03/25 06:22:39;;;;;;;;;;;8.70;57.60;;;6.40;59.39;96741.09;4016976;34;20576;-85
2022/03/25 06:25:10;;;;;;;;;;;8.20;59.10;;;6.11;60.48;96744.41;4004152;34;20225;-85
2022/03/25 06:27:47;;;;;;;;;;;7.90;60.70;;;5.88;61.08;96741.50;4003332;34;20258;-84
2022/03/25 06:30:17;;;;;;;;;;;7.50;62.10;;;5.68;62.09;96753.44;4003578;34;19905;-85
2022/03/25 06:32:49;;;;;;;;;;;7.30;63.40;;;5.55;62.57;96748.13;4030634;34;19904;-84
2022/03/25 06:35:17;;;;;;;;;;;7.10;64.40;;;5.42;63.20;96754.53;4009483;34;20216;-84
2022/03/25 06:37:46;;;;;;;;;;;6.90;65.20;;;5.30;63.94;96749.00;4048916;34;20235;-84
2022/03/25 06:40:15;;;;;;;;;;;6.80;66.00;;;5.22;64.30;96742.81;4031574;34;20115;-88
2022/03/25 06:42:44;;;;;;;;;;;6.60;66.60;;;5.16;64.20;96745.59;4002911;34;19908;-85
2022/03/25 06:45:14;;;;;;;;;;;6.50;67.10;;;5.13;64.38;96754.19;4025094;34;20284;-84
2022/03/25 06:47:47;;;;;;;;;;;6.50;67.50;;;5.09;64.68;96751.09;4006137;34;20572;-85
2022/03/25 06:50:17;;;;;;;;;;;6.40;67.70;;;5.07;65.26;96748.56;4005513;34;19905;-86
2022/03/25 06:52:46;;;;;;;;;;;6.40;68.10;;;5.05;65.30;96747.13;4025356;34;19905;-84
2022/03/25 06:55:15;;;;;;;;;;;6.30;68.40;;;5.05;65.32;96750.66;4024991;34;20349;-84
2022/03/25 06:57:45;;;;;;;;;;;6.30;68.70;;;5.04;65.50;96745.47;3997933;34;20238;-85
2022/03/25 07:00:15;;;;;;;;;;;6.30;68.80;;;5.03;65.64;96746.53;4001688;34;20203;-85
2022/03/25 07:02:46;;;;;;;;;;;6.30;68.90;;;5.02;65.62;96744.88;4002108;34;20210;-85
2022/03/25 07:05:15;;;;;;;;;;;6.30;69.00;;;5.05;65.47;96747.97;4002576;34;20207;-85
2022/03/25 07:07:44;;;;;;;;;;;6.30;69.20;;;5.06;65.30;96740.66;4023472;34;19909;-85
2022/03/25 07:10:14;;;;;;;;;;;6.30;69.20;;;5.07;65.68;96739.63;4002699;34;20212;-84
2022/03/25 07:12:45;;;;;;;;;;;6.30;69.60;;;5.07;65.43;96743.16;4016370;34;19911;-84
2022/03/25 07:15:13;;;;;;;;;;;6.30;69.30;;;5.10;65.63;96738.34;4025740;34;20483;-84
2022/03/25 07:17:44;;;;;;;;;;;6.30;69.30;;;5.11;65.73;96735.38;4024050;34;20603;-85
2022/03/25 07:20:16;;;;;;;;;;;6.30;69.40;;;5.12;65.82;96737.03;4003304;34;20208;-84
2022/03/25 07:22:46;;;;;;;;;;;6.30;69.40;;;5.15;65.57;96741.22;4003610;34;20206;-84
2022/03/25 07:25:32;;;;;;;;;;;6.30;69.50;;;5.16;65.82;96737.47;3992492;34;19928;-84
2022/03/25 07:28:01;;;;;;;;;;;6.30;69.50;;;5.18;65.86;96733.47;3976468;35;19928;-85
2022/03/25 07:30:30;;;;;;;;;;;6.30;69.50;;;5.18;65.49;96736.16;4019092;34;20212;-85
2022/03/25 07:33:05;;;;;;;;;;;6.30;69.50;;;5.20;65.58;96731.34;4011319;34;20210;-85
2022/03/25 07:36:04;;;;;;;;;;;6.30;69.50;;;5.23;65.71;96727.34;4023909;34;20553;-85
2022/03/25 07:38:39;;;;;;;;;;;6.30;69.60;;;5.24;65.64;96712.72;3998669;34;20218;-85
2022/03/25 07:41:10;;;;;;;;;;;6.30;69.60;;;5.26;65.85;96715.22;4001693;34;19912;-85
2022/03/25 07:43:41;;;;;;;;;;;6.40;69.60;;;5.26;65.72;96726.91;4018859;34;20199;-85
2022/03/25 07:46:24;;;;;;;;;;;6.40;69.60;;;5.26;65.63;96712.50;3998715;34;20230;-84
2022/03/25 07:48:58;;;;;;;;;;;6.40;69.50;;;5.27;65.44;96709.56;3978374;34;19905;-85
2022/03/25 07:51:29;;;;;;;;;;;6.40;69.50;;;5.32;65.60;96714.31;3982859;34;19905;-86
2022/03/25 07:54:00;;;;;;;;;;;6.40;69.50;;;5.33;65.68;96710.56;4026468;34;20214;-85
2022/03/25 07:56:42;;;;;;;;;;;6.40;69.50;;;5.35;65.57;96719.31;3979181;34;20231;-85
2022/03/25 07:59:11;;;;;;;;;;;6.40;69.50;;;5.35;65.73;96705.75;3989204;34;19911;-84
2022/03/25 08:01:45;;;;;;;;;;;6.40;69.40;;;5.35;65.29;96703.03;4023452;34;20212;-86
2022/03/25 08:04:15;;;;;;;;;;;6.40;69.40;;;5.38;65.55;96719.69;4010386;34;19904;-84
2022/03/25 08:06:44;;;;;;;;;;;6.40;69.40;;;5.38;65.22;96716.97;4019286;34;20209;-85
2022/03/25 08:09:13;;;;;;;;;;;6.50;69.50;;;5.39;65.27;96715.06;4051157;34;19904;-85
2022/03/25 08:11:41;;;;;;;;;;;6.40;69.30;;;5.38;65.18;96708.84;4037186;34;20193;-86
2022/03/25 08:14:09;;;;;;;;;;;6.40;69.30;;;5.37;65.35;96707.16;4057472;34;20104;-86
2022/03/25 08:16:42;;;;;;;;;;;6.50;69.50;;;5.39;65.09;96715.06;4035636;34;20202;-85
2022/03/25 08:19:51;;;;;;;;;;;6.50;69.50;;;5.35;65.15;96697.59;4057596;34;20099;-85
2022/03/25 08:22:28;;;;;;;;;;;6.50;69.60;;;5.38;65.34;96703.41;4030835;34;19904;-85
2022/03/25 08:28:04;;;;;;;;;;;6.40;69.50;;;5.34;65.48;96696.75;4057465;34;19904;-86
2022/03/25 08:30:33;;;;;;;;;;;6.40;69.50;;;5.31;65.44;96697.19;4057281;34;20211;-83
2022/03/25 08:33:13;;;;;;;;;;;6.40;69.50;;;5.28;65.56;96688.66;4035121;34;19904;-86
2022/03/25 08:37:03;;;;;;;;;;;6.40;69.50;;;5.22;65.43;96699.38;4037210;34;19938;-85
2022/03/25 08:39:32;;;;;;;;;;;6.40;69.60;;;5.19;65.75;96683.53;3998898;34;20219;-84
2022/03/25 08:42:08;;;;;;;;;;;6.30;69.80;;;5.17;66.06;96696.50;3978137;34;19912;-85
2022/03/25 09:07:31;;;;;;;;;;;6.20;70.00;;;5.05;66.81;96693.69;4234003;32;20204;-85
2022/03/25 09:10:37;;;;;;;;;;;;;;;;;;;;;
2022/03/25 09:13:19;;;;;;;;;;;6.20;70.30;;;5.00;66.78;96684.56;4192261;33;20215;-86
2022/03/25 09:15:48;;;;;;;;;;;6.20;71.20;;;5.02;66.88;96671.59;4184251;33;20090;-85
2022/03/25 09:18:28;;;;;;;;;;;6.20;70.50;;;5.01;66.60;96669.94;4160973;33;20196;-85
2022/03/25 09:20:57;;;;;;;;;;;6.20;70.50;;;4.98;66.66;96664.94;4123674;33;20183;-85
2022/03/25 09:23:27;;;;;;;;;;;6.20;70.50;;;4.96;66.73;96656.22;4105847;33;19902;-86
2022/03/25 09:25:56;;;;;;;;;;;6.20;70.50;;;4.96;66.35;96672.50;4152949;33;20241;-85
2022/03/25 09:29:25;;;;;;;;;;;6.20;70.60;;;4.93;66.40;96659.38;4152345;33;20212;-86
2022/03/25 09:32:02;;;;;;;;;;;6.20;70.70;;;4.91;67.16;96649.59;4073254;33;20202;-84
2022/03/25 09:37:22;;;;;;;;;;;6.10;70.80;;;4.90;67.40;96647.09;4122743;33;20102;-85
2022/03/25 09:39:54;;;;;;;;;;;6.10;70.80;;;4.87;66.77;96640.22;4147304;33;20178;-86
2022/03/25 09:42:23;;;;;;;;;;;6.10;70.90;;;4.88;67.13;96644.59;4150694;33;19902;-86
2022/03/25 09:44:51;;;;;;;;;;;6.10;71.00;;;4.85;67.21;96628.75;4150537;33;20199;-84
2022/03/25 09:47:20;;;;;;;;;;;6.10;71.10;;;4.86;67.36;96629.59;4174533;33;20201;-86
2022/03/25 09:49:49;;;;;;;;;;;6.10;71.20;;;4.83;67.10;96630.88;4189508;33;20302;-85
2022/03/25 09:52:19;;;;;;;;;;;6.10;71.10;;;4.84;67.50;96629.81;4140655;33;19901;-85
2022/03/25 09:54:47;;;;;;;;;;;6.10;71.10;;;4.82;67.62;96637.38;4179371;28;20242;-82
2022/03/25 09:57:17;;;;;;;;;;;6.10;71.20;;;4.81;67.60;96633.00;4101550;33;19903;-82
2022/03/25 09:59:46;;;;;;;;;;;6.10;71.20;;;4.80;67.67;96622.34;4127691;33;20566;-82
2022/03/25 10:02:14;;;;;;;;;;;6.00;71.20;;;4.80;67.43;96628.63;4132029;33;19903;-82
2022/03/25 10:04:43;;;;;;;;;;;6.00;71.20;;;4.79;67.54;96618.81;4152670;33;20207;-82
2022/03/25 10:07:17;;;;;;;;;;;6.00;71.20;;;4.78;67.73;96617.16;4127323;33;20203;-82
2022/03/25 10:09:46;;;;;;;;;;;6.00;71.20;;;4.77;67.40;96612.78;4121020;33;19903;-82
2022/03/25 10:12:26;;;;;;;;;;;6.00;71.30;;;4.75;67.96;96614.88;4123527;33;19903;-82
2022/03/25 10:15:11;;;;;;;;;;;6.00;71.40;;;4.74;67.69;96614.06;4123159;33;19902;-82
2022/03/25 10:17:54;;;;;;;;;;;6.00;71.40;;;4.73;67.96;96617.81;4118895;33;19969;-82
2022/03/25 10:20:25;;;;;;;;;;;6.00;71.50;;;4.73;67.57;96614.28;4118802;33;20247;-82
2022/03/25 10:23:13;;;;;;;;;;;6.00;71.50;;;4.72;67.64;96618.03;4145609;33;20583;-82
2022/03/25 10:25:45;;;;;;;;;;;6.00;71.50;;;4.71;67.82;96614.50;4101899;33;20545;-82
2022/03/25 10:28:27;;;;;;;;;;;6.00;71.50;;;4.70;68.17;96618.25;4089888;33;19985;-82
2022/03/25 10:30:58;;;;;;;;;;;5.90;71.60;;;4.69;67.95;96607.66;4094498;33;20178;-82
2022/03/25 10:33:30;;;;;;;;;;;5.90;71.60;;;4.67;68.00;96616.00;4082200;33;20558;-82
2022/03/25 10:36:09;;;;;;;;;;;5.90;71.70;;;4.64;68.18;96610.19;4071626;33;20208;-82
2022/03/25 10:38:46;;;;;;;;;;;5.90;71.80;;;4.61;68.08;96617.72;4111918;33;20241;-82
2022/03/25 10:41:17;;;;;;;;;;;5.90;71.90;;;4.60;68.06;96620.66;4060772;33;20233;-82
2022/03/25 10:43:59;;;;;;;;;;;5.90;72.00;;;4.57;68.25;96611.09;4082644;33;20588;-82
2022/03/25 10:46:34;;;;;;;;;;;5.80;72.00;;;4.55;68.33;96615.91;4081279;33;20076;-82
2022/03/25 10:49:05;;;;;;;;;;;5.80;72.20;;;4.53;68.77;96620.72;4103545;33;19902;-82
2022/03/25 10:51:34;;;;;;;;;;;5.80;72.30;;;4.50;68.99;96617.63;4078176;33;19903;-82
2022/03/25 10:54:05;;;;;;;;;;;5.80;72.30;;;4.49;68.55;96627.63;4081848;33;19910;-82
2022/03/25 10:56:44;;;;;;;;;;;5.70;72.40;;;4.48;69.03;96628.66;4081220;33;20195;-82
2022/03/25 10:59:25;;;;;;;;;;;5.70;72.50;;;4.47;68.58;96631.63;4105174;33;20201;-83
2022/03/25 11:01:54;;;;;;;;;;;5.70;72.50;;;4.47;68.80;96629.72;4093350;33;20220;-82
2022/03/25 11:04:23;;;;;;;;;;;5.70;72.60;;;4.43;68.89;96636.66;4109772;33;20006;-83
2022/03/25 11:06:52;;;;;;;;;;;5.70;72.60;;;4.44;68.87;96627.47;4112723;33;20199;-83
2022/03/25 11:09:21;;;;;;;;;;;5.70;72.70;;;4.44;68.68;96627.47;4107017;33;20207;-84
2022/03/25 11:11:51;;;;;;;;;;;5.70;72.70;;;4.46;68.81;96622.63;4129229;33;20549;-83
2022/03/25 11:14:20;;;;;;;;;;;5.70;72.70;;;4.45;69.11;96629.13;4110899;33;20533;-83
2022/03/25 11:16:54;;;;;;;;;;;5.70;72.70;;;4.45;68.64;96640.78;4079277;33;20455;-83
2022/03/25 11:19:23;;;;;;;;;;;5.70;72.60;;;4.45;68.54;96651.63;4104217;33;20192;-82
2022/03/25 11:21:52;;;;;;;;;;;5.70;72.60;;;4.45;68.47;96656.25;4103719;33;20239;-82
2022/03/25 11:24:24;;;;;;;;;;;5.70;72.70;;;4.44;68.98;96646.44;4108841;33;19903;-82
2022/03/25 11:26:54;;;;;;;;;;;5.70;72.60;;;4.42;68.89;96651.25;4079846;33;20785;-82
2022/03/25 11:29:27;;;;;;;;;;;5.70;72.70;;;4.40;68.92;96648.75;4082661;33;20207;-82
2022/03/25 11:32:11;;;;;;;;;;;5.70;72.80;;;4.38;68.54;96658.16;4116284;33;20195;-82
2022/03/25 11:34:43;;;;;;;;;;;5.60;72.70;;;4.38;69.09;96658.16;4115930;33;20191;-83
2022/03/25 11:37:22;;;;;;;;;;;5.60;72.80;;;4.36;68.84;96654.84;4130961;33;19974;-82
2022/03/25 11:40:25;;;;;;;;;;;5.60;72.80;;;4.36;69.25;96652.13;4153872;33;20220;-82
2022/03/25 11:42:55;;;;;;;;;;;5.60;72.90;;;4.32;69.24;96656.34;4141478;33;19902;-82
2022/03/25 11:45:36;;;;;;;;;;;5.60;73.00;;;4.33;69.17;96660.69;4174012;33;20187;-82
2022/03/25 11:48:49;;;;;;;;;;;5.60;73.00;;;4.33;69.67;96655.25;4144342;33;20214;-82
2022/03/25 11:51:33;;;;;;;;;;;5.60;73.10;;;4.34;69.51;96665.06;4090281;33;20199;-82
2022/03/25 11:54:04;;;;;;;;;;;5.60;73.20;;;4.34;69.31;96665.06;4100542;33;20197;-83
2022/03/25 11:56:50;;;;;;;;;;;5.60;73.10;;;4.35;69.06;96677.56;4076931;33;20222;-82
2022/03/25 11:59:19;;;;;;;;;;;5.60;73.10;;;4.35;69.23;96680.28;4076864;33;20224;-82
2022/03/25 12:01:48;;;;;;;;;;;5.60;73.10;;;4.35;69.26;96680.28;4104201;33;20215;-82
2022/03/25 12:04:37;;;;;;;;;;;5.60;73.10;;;4.36;69.01;96690.06;4074320;33;20235;-82
2022/03/25 12:07:09;;;;;;;;;;;5.60;73.10;;;4.35;68.99;96704.66;4075469;33;20209;-82
2022/03/25 12:09:39;;;;;;;;;;;5.60;73.10;;;4.34;69.31;96703.00;4076682;33;20238;-82
2022/03/25 12:12:09;;;;;;;;;;;5.60;73.00;;;4.35;69.31;96715.50;4077047;33;20226;-82
2022/03/25 12:14:37;;;;;;;;;;;5.60;72.90;;;4.33;69.31;96707.59;4076660;33;20193;-82
2022/03/25 12:17:07;;;;;;;;;;;5.60;72.90;;;4.32;69.04;96715.97;4072586;33;20103;-82
2022/03/25 12:19:55;;;;;;;;;;;5.60;72.90;;;4.32;68.96;96726.81;4099916;33;20350;-82
2022/03/25 12:22:40;;;;;;;;;;;5.50;73.00;;;4.33;69.32;96736.56;4074402;33;20212;-82
2022/03/25 12:25:21;;;;;;;;;;;5.50;73.00;;;4.30;69.15;96736.00;4098935;33;20170;-82
2022/03/25 12:27:52;;;;;;;;;;;5.50;73.10;;;4.30;69.38;96738.69;4071816;33;20212;-82
2022/03/25 12:30:21;;;;;;;;;;;5.50;73.20;;;4.30;69.05;96730.56;4072204;33;20225;-82
2022/03/25 12:32:49;;;;;;;;;;;5.50;73.20;;;4.29;69.27;96745.16;4049707;33;20209;-82
2022/03/25 12:35:26;;;;;;;;;;;5.50;73.20;;;4.28;69.08;96738.09;4072243;33;20197;-82
2022/03/25 12:38:10;;;;;;;;;;;5.50;73.30;;;4.27;69.49;96725.56;4070982;33;20201;-82
2022/03/25 12:40:38;;;;;;;;;;;5.50;73.30;;;4.28;69.41;96737.22;4075396;33;20229;-82
2022/03/25 12:43:11;;;;;;;;;;;5.50;73.20;;;4.27;69.71;96744.53;4074358;33;20203;-82
2022/03/25 12:45:40;;;;;;;;;;;5.50;73.40;;;4.27;69.63;96744.53;4050684;33;20563;-83